• Join FlightAware (Why Join?)
  • Login
  • US Flag 
03:05AM EDT


 

Airport Tracker/Info


-or-


 

Live Flight TrackerFlight Track Log ✈ EGF3016 ✈ 14-Oct-2013 ✈ KALO - KORD

Flight Track Log - Related Links

Times and Time Zones

All times are in EDT time to prevent confusion due to time zone crossing. See the EGF3016 flight status page for this flight to view local times or setup timezone preferences in your user account.

Time Position Orientation Groundspeed Altitude Reporting Facility
EDT Latitude Longitude Course Direction KTS MPH feet Rate Location/Type
08:10AM 42.5375 -92.3628 95° East 138 159 2,400  Level Chicago Center
08:11AM 42.5211 -92.2967 109° East 208 239 4,400 1,980 Climbing Chicago Center
08:12AM 42.5239 -92.2067 88° East 231 266 6,500 2,040 Climbing Chicago Center
08:13AM 42.5247 -92.1086 89° East 249 287 8,700 2,220 Climbing Chicago Center
08:14AM 42.5258 -91.9839 89° East 272 313 11,100 1,740 Climbing Chicago Center
08:15AM 42.4768 -91.6752 95° East  Level Estimated
08:15AM 42.5264 -91.8675 90° East 300 345 12,300  Level Chicago Center
08:16AM 42.5264 -91.7428 90° East 327 376 14,000 1,560 Climbing Chicago Center
08:17AM 42.5272 -91.6125 89° East 345 397 15,600 1,620 Climbing Chicago Center
08:18AM 42.5275 -91.4508 90° East 364 419 17,400 1,380 Climbing Chicago Center
08:19AM 42.5267 -91.3122 90° East 373 429 18,500 1,200 Climbing Chicago Center
08:20AM 42.5267 -91.1708 90° East 378 435 20,000 1,200 Climbing Chicago Center
08:21AM 42.5256 -91.0233 91° East 393 452 21,000 480 Climbing Chicago Center
08:22AM 42.5253 -90.8283 90° East 433 498 21,000  Level Chicago Center
08:23AM 42.5253 -90.6561 90° East 458 527 21,000  Level Chicago Center
08:24AM 42.5231 -90.4842 91° East 460 529 21,000  Level Chicago Center
08:25AM 42.5219 -90.3147 90° East 456 525 21,000  Level Chicago Center
08:26AM 42.5214 -90.1439 90° East 456 525 21,000  Level Chicago Center
08:27AM 42.5192 -89.9411 91° East 455 524 21,000  Level Chicago Center
08:28AM 42.5175 -89.7828 91° East 453 521 21,000 -540 Level Chicago Center
08:29AM 42.5164 -89.6267 91° East 424 488 20,000 -1,260 Descending Chicago Center
08:31AM 42.5122 -89.4414 92° East 413 475 18,400 -1,200 Descending Chicago Center
08:32AM 42.5097 -89.2956 91° East 395 455 17,600 -1,080 Descending Chicago Center
08:33AM 42.4914 -89.1575 100° East 377 434 16,200 -1,320 Descending Chicago Center
08:34AM 42.4656 -89.0147 104° East 389 448 14,900 -1,620 Descending Chicago Center
08:35AM 42.4408 -88.8692 103° East 397 457 12,900 -2,280 Descending Chicago Center
08:36AM 42.4117 -88.7053 103° East 379 436 10,300 -1,020 Descending Chicago Center
08:41AM 42.2630 -88.2420 103° East 100 115 6,600 -720 Descending FlightAware
08:41AM 42.2590 -88.2370 137° Southeast 100 115 6,600  Level FlightAware
08:41AM 42.2370 -88.2120 140° Southeast 266 306 6,600 -360 Level FlightAware
08:42AM 42.2100 -88.1820 141° Southeast 230 265 6,300 -540 Descending FlightAware
08:42AM 42.2070 -88.1790 143° Southeast 230 265 6,300 -840 Level FlightAware
08:42AM 42.1970 -88.1680 141° Southeast 233 268 6,100 -1,140 Descending FlightAware
08:42AM 42.1950 -88.1650 132° Southeast 233 268 6,000 -1,200 Descending FlightAware
08:43AM 42.1740 -88.1410 140° Southeast 230 265 5,500 -1,260 Descending FlightAware
08:43AM 42.1560 -88.1200 139° Southeast 231 266 5,000 -1,320 Descending FlightAware
08:44AM 42.1340 -88.0950 140° Southeast 226 260 4,400 -1,200 Descending FlightAware
08:44AM 42.1210 -88.0810 141° Southeast 213 245 4,100 -1,380 Descending FlightAware
08:44AM 42.1070 -88.0650 140° Southeast 211 243 3,600 -1,500 Descending FlightAware
08:45AM 42.0890 -88.0450 140° Southeast 204 235 3,100 -600 Descending FlightAware
08:45AM 42.0730 -88.0280 142° Southeast 204 235 3,100 -1,140 Level FlightAware
08:46AM 42.0206 -87.9672 142° Southeast 186 214 1,500 -900 Descending Chicago Center
08:47AM 41.9936 -87.9367 140° Southeast 172 198 1,300 -240 Descending Chicago Center